createdAt,value
2023-03-29T00:01:06.873Z,101851.69
2023-03-29T00:03:40.556Z,101847.31
2023-03-29T00:06:22.365Z,101849.88
2023-03-29T00:08:54.886Z,101839.38
2023-03-29T00:11:27.933Z,101840.25
2023-03-29T00:14:00.459Z,101828.84
2023-03-29T00:16:33.288Z,101833.91
2023-03-29T00:19:05.876Z,101820.94
2023-03-29T00:21:38.505Z,101816.56
2023-03-29T00:24:10.998Z,101814.78
2023-03-29T00:26:43.513Z,101815.75
2023-03-29T00:29:15.832Z,101809.78
2023-03-29T00:31:54.064Z,101801.06
2023-03-29T00:34:31.039Z,101802.75
2023-03-29T00:37:04.389Z,101801.84
2023-03-29T00:39:37.291Z,101795.78
2023-03-29T00:42:17.713Z,101795.69
2023-03-29T00:45:12.705Z,101793.78
2023-03-29T00:47:57.656Z,101797.00
2023-03-29T00:50:48.656Z,101803.16
2023-03-29T00:53:46.828Z,101789.81
2023-03-29T00:56:40.202Z,101790.66
2023-03-29T00:59:21.841Z,101787.16
2023-03-29T01:02:00.111Z,101790.75
2023-03-29T01:04:46.507Z,101787.19
2023-03-29T01:07:24.010Z,101787.00
2023-03-29T01:10:09.308Z,101788.81
2023-03-29T01:12:48.995Z,101774.97
2023-03-29T01:15:29.026Z,101781.56
2023-03-29T01:18:02.256Z,101781.31
2023-03-29T01:21:03.466Z,101773.50
2023-03-29T01:23:46.093Z,101770.06
2023-03-29T01:27:02.544Z,101762.56
2023-03-29T01:29:37.712Z,101763.41
2023-03-29T01:32:18.438Z,101758.78
2023-03-29T01:34:59.040Z,101758.16
2023-03-29T01:37:39.147Z,101757.25
2023-03-29T01:40:12.280Z,101752.06
2023-03-29T01:43:11.769Z,101742.31
2023-03-29T01:45:48.802Z,101738.72
2023-03-29T01:48:48.659Z,101739.03
2023-03-29T01:51:38.809Z,101736.69
2023-03-29T01:54:35.959Z,101741.03
2023-03-29T01:57:10.806Z,101732.50
2023-03-29T01:59:45.047Z,101718.56
2023-03-29T02:02:19.542Z,101719.53
2023-03-29T02:04:54.636Z,101716.16
2023-03-29T02:07:37.621Z,101707.34
2023-03-29T02:10:11.880Z,101705.63
2023-03-29T02:12:44.134Z,101704.50
2023-03-29T02:15:20.415Z,101698.44
2023-03-29T02:17:53.225Z,101695.84
2023-03-29T02:20:40.758Z,101693.97
2023-03-29T02:23:39.090Z,101698.09
2023-03-29T02:26:11.976Z,101693.50
2023-03-29T02:28:44.410Z,101681.38
2023-03-29T02:31:44.039Z,101683.88
2023-03-29T02:34:19.514Z,101677.78
2023-03-29T02:36:59.042Z,101674.34
2023-03-29T02:39:34.930Z,101676.13
2023-03-29T02:42:08.539Z,101671.88
2023-03-29T02:44:41.721Z,101673.72
2023-03-29T02:47:24.337Z,101664.41
2023-03-29T02:49:57.062Z,101661.78
2023-03-29T02:52:36.112Z,101659.88
2023-03-29T02:55:15.222Z,101650.38
2023-03-29T02:57:47.339Z,101652.91
2023-03-29T03:00:20.292Z,101649.34
2023-03-29T03:02:52.610Z,101643.59
2023-03-29T03:05:25.148Z,101648.81
2023-03-29T03:07:58.684Z,101641.22
2023-03-29T03:10:33.436Z,101637.06
2023-03-29T03:13:05.998Z,101630.34
2023-03-29T03:15:42.907Z,101640.63
2023-03-29T03:18:16.913Z,101634.72
2023-03-29T03:21:02.215Z,101624.88
2023-03-29T03:23:34.843Z,101622.59
2023-03-29T03:26:07.086Z,101613.06
2023-03-29T03:28:39.939Z,101613.31
2023-03-29T03:31:14.221Z,101616.00
2023-03-29T03:33:46.817Z,101611.91
2023-03-29T03:36:19.016Z,101605.66
2023-03-29T03:38:51.858Z,101609.09
2023-03-29T03:41:27.290Z,101603.97
2023-03-29T03:44:00.065Z,101607.44
2023-03-29T03:46:32.335Z,101606.56
2023-03-29T03:49:04.926Z,101598.53
2023-03-29T03:51:37.108Z,101602.91
2023-03-29T03:54:09.470Z,101600.41
2023-03-29T03:56:41.865Z,101595.44
2023-03-29T03:59:14.118Z,101598.03
2023-03-29T04:01:46.397Z,101595.19
2023-03-29T04:04:19.863Z,101589.94
2023-03-29T04:06:53.178Z,101595.75
2023-03-29T04:09:26.015Z,101586.91
2023-03-29T04:11:59.685Z,101584.44
2023-03-29T04:14:32.452Z,101586.34
2023-03-29T04:17:06.681Z,101592.66
2023-03-29T04:19:38.892Z,101589.56
2023-03-29T04:22:11.127Z,101589.50
2023-03-29T04:24:43.719Z,101586.28
2023-03-29T04:27:15.857Z,101576.81
2023-03-29T04:29:49.099Z,101580.38
2023-03-29T04:32:21.328Z,101575.09
2023-03-29T04:34:53.412Z,101583.47
2023-03-29T04:37:25.879Z,101579.44
2023-03-29T04:40:00.602Z,101584.44
2023-03-29T04:42:34.457Z,101574.84
2023-03-29T04:45:07.350Z,101567.72
2023-03-29T04:47:42.242Z,101571.38
2023-03-29T04:50:14.858Z,101570.69
2023-03-29T04:52:47.409Z,101568.28
2023-03-29T04:55:19.828Z,101582.25
2023-03-29T04:57:55.860Z,101576.03
2023-03-29T05:00:28.801Z,101568.00
2023-03-29T05:03:01.263Z,101563.66
2023-03-29T05:05:39.488Z,101564.56
2023-03-29T05:08:12.632Z,101561.97
2023-03-29T05:10:45.187Z,101561.94
2023-03-29T05:13:20.121Z,101557.00
2023-03-29T05:15:52.763Z,101545.84
2023-03-29T05:18:25.430Z,101543.09
2023-03-29T05:20:58.971Z,101537.13
2023-03-29T05:23:32.016Z,101537.25
2023-03-29T05:26:05.422Z,101535.50
2023-03-29T05:28:37.673Z,101541.53
2023-03-29T05:31:10.509Z,101540.75
2023-03-29T05:33:43.388Z,101545.09
2023-03-29T05:36:19.280Z,101543.50
2023-03-29T05:38:51.515Z,101538.38
2023-03-29T05:41:24.922Z,101544.53
2023-03-29T05:43:57.086Z,101541.06
2023-03-29T05:46:29.508Z,101544.31
2023-03-29T05:49:02.657Z,101535.72
2023-03-29T05:51:35.633Z,101538.31
2023-03-29T05:54:07.804Z,101540.13
2023-03-29T05:56:47.049Z,101534.09
2023-03-29T05:59:19.951Z,101545.66
2023-03-29T06:01:52.178Z,101548.19
2023-03-29T06:04:24.868Z,101542.97
2023-03-29T06:06:57.642Z,101541.28
2023-03-29T06:09:29.966Z,101543.94
2023-03-29T06:12:04.372Z,101541.41
2023-03-29T06:14:37.525Z,101537.91
2023-03-29T06:17:09.852Z,101544.06
2023-03-29T06:19:42.570Z,101539.22
2023-03-29T06:22:15.025Z,101539.19
2023-03-29T06:24:47.381Z,101529.91
2023-03-29T06:27:19.877Z,101527.22
2023-03-29T06:29:52.868Z,101534.25
2023-03-29T06:32:25.963Z,101533.34
2023-03-29T06:34:58.286Z,101537.63
2023-03-29T06:37:32.219Z,101532.38
2023-03-29T06:40:09.554Z,101536.09
2023-03-29T06:42:46.302Z,101532.59
2023-03-29T06:45:19.701Z,101537.00
2023-03-29T06:47:53.931Z,101539.66
2023-03-29T06:50:26.766Z,101535.31
2023-03-29T06:52:58.972Z,101538.66
2023-03-29T06:55:32.160Z,101541.44
2023-03-29T06:58:04.541Z,101538.16
2023-03-29T07:00:39.267Z,101534.53
2023-03-29T07:03:14.994Z,101532.00
2023-03-29T07:05:48.193Z,101526.72
2023-03-29T07:08:21.454Z,101532.59
2023-03-29T07:10:54.216Z,101533.59
2023-03-29T07:13:26.585Z,101527.56
2023-03-29T07:15:58.979Z,101527.75
2023-03-29T07:18:31.362Z,101527.25
2023-03-29T07:21:04.951Z,101534.22
2023-03-29T07:23:37.781Z,101531.88
2023-03-29T07:26:11.395Z,101537.81
2023-03-29T07:28:43.676Z,101537.69
2023-03-29T07:31:25.649Z,101547.22
2023-03-29T07:34:00.970Z,101538.66
2023-03-29T07:36:34.720Z,101535.13
2023-03-29T07:39:09.363Z,101538.56
2023-03-29T07:41:41.667Z,101532.00
2023-03-29T07:44:14.231Z,101532.34
2023-03-29T07:46:46.526Z,101540.31
2023-03-29T07:49:21.010Z,101548.16
2023-03-29T07:51:55.248Z,101546.16
2023-03-29T07:54:27.460Z,101549.66
2023-03-29T07:56:59.841Z,101536.63
2023-03-29T07:59:32.292Z,101537.41
2023-03-29T08:02:04.754Z,101541.00
2023-03-29T08:04:37.250Z,101538.16
2023-03-29T08:07:14.858Z,101527.84
2023-03-29T08:09:48.803Z,101534.81
2023-03-29T08:12:23.152Z,101540.38
2023-03-29T08:14:56.880Z,101536.00
2023-03-29T08:17:29.121Z,101531.44
2023-03-29T08:20:01.521Z,101536.91
2023-03-29T08:22:34.405Z,101535.91
2023-03-29T08:25:08.553Z,101531.66
2023-03-29T08:27:46.752Z,101526.34
2023-03-29T08:30:19.457Z,101532.78
2023-03-29T08:32:55.189Z,101525.22
2023-03-29T08:35:27.900Z,101519.16
2023-03-29T08:38:00.263Z,101530.13
2023-03-29T08:40:32.598Z,101518.66
2023-03-29T08:43:26.316Z,101538.91
2023-03-29T08:46:20.207Z,101521.66
2023-03-29T08:48:57.951Z,101520.97
2023-03-29T08:51:57.035Z,101516.81
2023-03-29T08:54:40.199Z,101512.25
2023-03-29T08:57:35.703Z,101519.19
2023-03-29T09:00:18.534Z,101513.56
2023-03-29T09:02:54.130Z,101505.72
2023-03-29T09:05:45.338Z,101511.81
2023-03-29T09:08:19.972Z,101513.31
2023-03-29T09:11:07.355Z,101515.16
2023-03-29T09:14:21.666Z,101516.84
2023-03-29T09:17:16.935Z,101514.28
2023-03-29T09:20:07.078Z,101517.91
2023-03-29T09:22:57.937Z,101504.25
2023-03-29T09:25:53.600Z,101511.25
2023-03-29T09:28:37.491Z,101498.38
2023-03-29T09:31:21.756Z,101499.56
2023-03-29T09:34:09.288Z,101496.94
2023-03-29T09:37:13.784Z,101497.81
2023-03-29T09:39:46.366Z,101500.41
2023-03-29T09:42:19.962Z,101495.88
2023-03-29T09:44:57.572Z,101490.56
2023-03-29T09:47:55.222Z,101481.03
2023-03-29T09:50:37.123Z,101485.59
2023-03-29T09:53:14.620Z,101492.50
2023-03-29T09:55:50.645Z,101486.03
2023-03-29T09:58:28.584Z,101489.38
2023-03-29T10:01:10.567Z,101488.34
2023-03-29T10:03:49.471Z,101486.84
2023-03-29T10:06:25.705Z,101475.38
2023-03-29T10:09:01.787Z,101465.97
2023-03-29T10:11:37.153Z,101468.88
2023-03-29T10:14:43.438Z,101473.94
2023-03-29T10:17:29.726Z,101476.69
2023-03-29T10:20:13.366Z,101478.44
2023-03-29T10:22:59.734Z,101475.75
2023-03-29T10:25:34.656Z,101468.16
2023-03-29T10:28:17.560Z,101475.19
2023-03-29T10:30:55.950Z,101469.13
2023-03-29T10:33:36.866Z,101467.47
2023-03-29T10:36:13.717Z,101461.50
2023-03-29T10:38:46.794Z,101470.25
2023-03-29T10:41:22.124Z,101457.25
2023-03-29T10:43:55.291Z,101449.50
2023-03-29T10:46:44.404Z,101448.56
2023-03-29T10:49:25.196Z,101450.88
2023-03-29T10:51:57.693Z,101453.44
2023-03-29T10:54:31.346Z,101450.91
2023-03-29T10:57:10.650Z,101450.94
2023-03-29T10:59:42.921Z,101449.28
2023-03-29T11:02:16.776Z,101445.06
2023-03-29T11:05:07.114Z,101441.88
2023-03-29T11:07:55.796Z,101451.69
2023-03-29T11:11:11.556Z,101442.22
2023-03-29T11:14:00.022Z,101450.13
2023-03-29T11:16:52.753Z,101450.13
2023-03-29T11:20:03.711Z,101445.78
2023-03-29T11:23:07.767Z,101442.31
2023-03-29T11:26:27.977Z,101440.63
2023-03-29T11:29:57.365Z,101445.00
2023-03-29T11:32:34.845Z,101436.28
2023-03-29T11:38:54.047Z,101435.34
2023-03-29T11:41:36.463Z,101438.81
2023-03-29T11:44:30.959Z,101437.13
2023-03-29T11:47:11.259Z,101432.69
2023-03-29T11:49:47.279Z,101426.47
2023-03-29T11:52:32.872Z,101423.94
2023-03-29T11:55:29.083Z,101427.38
2023-03-29T11:58:15.537Z,101428.31
2023-03-29T12:01:02.858Z,101423.91
2023-03-29T12:03:54.811Z,101423.91
2023-03-29T12:06:53.642Z,101423.03
2023-03-29T12:09:51.207Z,101428.97
2023-03-29T12:12:55.949Z,101410.63
2023-03-29T12:15:37.103Z,101399.84
2023-03-29T12:18:17.534Z,101402.22
2023-03-29T12:20:59.224Z,101406.50
2023-03-29T12:23:33.304Z,101404.38
2023-03-29T12:26:30.503Z,101397.75
2023-03-29T12:29:34.847Z,101393.97
2023-03-29T12:32:17.255Z,101379.91
2023-03-29T12:34:52.334Z,101390.50
2023-03-29T12:37:49.413Z,101379.06
2023-03-29T12:40:26.375Z,101383.53
2023-03-29T12:43:07.505Z,101369.94
2023-03-29T12:45:51.169Z,101377.91
2023-03-29T12:48:30.275Z,101384.28
2023-03-29T12:51:13.562Z,101378.25
2023-03-29T12:54:09.583Z,101380.69
2023-03-29T12:56:52.325Z,101371.19
2023-03-29T12:59:43.267Z,101366.34
2023-03-29T13:02:15.495Z,101354.25
2023-03-29T13:04:57.682Z,101364.25
2023-03-29T13:07:45.961Z,101361.19
2023-03-29T13:10:42.350Z,101356.13
2023-03-29T13:13:24.306Z,101343.13
2023-03-29T13:16:08.275Z,101346.50
2023-03-29T13:19:08.996Z,101332.31
2023-03-29T13:22:18.447Z,101330.22
2023-03-29T13:25:58.402Z,101335.78
2023-03-29T13:29:34.032Z,101331.28
2023-03-29T13:32:51.313Z,101336.38
2023-03-29T13:35:50.805Z,101328.22
2023-03-29T13:38:29.011Z,101331.47
2023-03-29T13:41:07.463Z,101334.97
2023-03-29T13:43:54.086Z,101325.75
2023-03-29T13:46:41.797Z,101324.72
2023-03-29T13:49:21.449Z,101327.16
2023-03-29T13:51:54.003Z,101326.00
2023-03-29T13:54:38.068Z,101327.72
2023-03-29T13:57:25.767Z,101325.44
2023-03-29T14:00:14.289Z,101323.44
2023-03-29T14:03:04.482Z,101322.28
2023-03-29T14:05:39.262Z,101322.84
2023-03-29T14:08:23.924Z,101327.97
2023-03-29T14:10:56.568Z,101315.00
2023-03-29T14:13:30.337Z,101311.63
2023-03-29T14:16:10.681Z,101311.56
2023-03-29T14:18:45.231Z,101309.06
2023-03-29T14:21:21.456Z,101302.91
2023-03-29T14:24:03.537Z,101310.66
2023-03-29T14:26:36.205Z,101304.69
2023-03-29T14:29:12.282Z,101301.81
2023-03-29T14:31:44.571Z,101299.50
2023-03-29T14:34:19.390Z,101292.94
2023-03-29T14:36:54.361Z,101296.94
2023-03-29T14:39:26.877Z,101304.38
2023-03-29T14:41:59.534Z,101307.47
2023-03-29T14:44:35.142Z,101305.34
2023-03-29T14:47:10.227Z,101307.03
2023-03-29T14:49:42.641Z,101299.84
2023-03-29T14:52:15.192Z,101299.13
2023-03-29T14:54:52.232Z,101295.94
2023-03-29T14:57:29.285Z,101292.75
2023-03-29T15:00:17.063Z,101290.16
2023-03-29T15:03:05.336Z,101295.59
2023-03-29T15:05:41.386Z,101278.13
2023-03-29T15:08:38.759Z,101277.97
2023-03-29T15:11:26.720Z,101279.53
2023-03-29T15:14:52.077Z,101268.94
2023-03-29T15:17:51.098Z,101272.47
2023-03-29T15:20:33.170Z,101275.13
2023-03-29T15:23:55.927Z,101270.06
2023-03-29T15:26:36.942Z,101264.97
2023-03-29T15:29:23.631Z,101258.97
2023-03-29T15:31:59.886Z,101251.03
2023-03-29T15:34:33.832Z,101255.31
2023-03-29T15:37:07.882Z,101256.19
2023-03-29T15:39:44.364Z,101249.09
2023-03-29T15:42:17.016Z,101259.66
2023-03-29T15:44:49.187Z,101267.66
2023-03-29T15:47:21.345Z,101254.63
2023-03-29T15:49:53.647Z,101256.25
2023-03-29T15:52:26.075Z,101254.50
2023-03-29T15:54:58.254Z,101248.69
2023-03-29T15:57:30.648Z,101242.66
2023-03-29T16:00:07.888Z,101243.34
2023-03-29T16:02:41.173Z,101246.03
2023-03-29T16:05:13.751Z,101246.97
2023-03-29T16:08:10.597Z,101239.91
2023-03-29T16:10:44.132Z,101229.53
2023-03-29T16:13:16.485Z,101235.66
2023-03-29T16:15:48.658Z,101242.75
2023-03-29T16:18:20.921Z,101245.38
2023-03-29T16:21:13.857Z,101241.84
2023-03-29T16:23:47.399Z,101251.44
2023-03-29T16:26:19.616Z,101252.34
2023-03-29T16:29:03.758Z,101242.78
2023-03-29T16:31:36.683Z,101245.44
2023-03-29T16:34:13.220Z,101234.94
2023-03-29T16:36:46.743Z,101233.25
2023-03-29T16:39:18.937Z,101234.19
2023-03-29T16:41:51.201Z,101231.59
2023-03-29T16:44:24.883Z,101229.88
2023-03-29T16:46:58.628Z,101220.31
2023-03-29T16:49:31.053Z,101216.84
2023-03-29T16:52:03.173Z,101212.47
2023-03-29T16:54:35.399Z,101205.53
2023-03-29T16:57:07.899Z,101198.59
2023-03-29T16:59:42.027Z,101202.94
2023-03-29T17:02:14.208Z,101201.19
2023-03-29T17:04:46.656Z,101191.56
2023-03-29T17:07:18.891Z,101191.59
2023-03-29T17:09:51.543Z,101202.06
2023-03-29T17:12:24.268Z,101207.31
2023-03-29T17:14:56.704Z,101203.81
2023-03-29T17:17:29.404Z,101193.28
2023-03-29T17:20:01.887Z,101187.19
2023-03-29T17:22:34.502Z,101181.13
2023-03-29T17:25:08.515Z,101181.19
2023-03-29T17:27:40.638Z,101177.69
2023-03-29T17:30:13.705Z,101190.88
2023-03-29T17:32:46.027Z,101195.25
2023-03-29T17:35:18.474Z,101202.25
2023-03-29T17:37:50.541Z,101206.63
2023-03-29T17:40:23.046Z,101207.50
2023-03-29T17:42:55.338Z,101215.34
2023-03-29T17:45:27.544Z,101212.75
2023-03-29T17:47:59.784Z,101211.00
2023-03-29T17:50:41.399Z,101199.69
2023-03-29T17:53:13.708Z,101197.94
2023-03-29T17:55:46.118Z,101195.31
2023-03-29T17:58:19.647Z,101195.31
2023-03-29T18:00:52.111Z,101190.94
2023-03-29T18:03:24.323Z,101194.44
2023-03-29T18:05:56.857Z,101204.03
2023-03-29T18:08:29.132Z,101204.06
2023-03-29T18:11:19.727Z,101200.56
2023-03-29T18:13:53.839Z,101204.06
2023-03-29T18:16:26.481Z,101200.59
2023-03-29T18:18:58.611Z,101191.00
2023-03-29T18:21:30.866Z,101192.75
2023-03-29T18:24:34.010Z,101194.50
2023-03-29T18:27:06.339Z,101194.47
2023-03-29T18:29:38.770Z,101184.84
2023-03-29T18:32:11.737Z,101179.59
2023-03-29T18:35:08.138Z,101177.00
2023-03-29T18:37:43.658Z,101170.06
2023-03-29T18:40:20.193Z,101169.19
2023-03-29T18:42:52.587Z,101170.91
2023-03-29T18:45:40.361Z,101163.91
2023-03-29T18:48:13.197Z,101155.19
2023-03-29T18:50:46.805Z,101159.59
2023-03-29T18:53:19.845Z,101160.47
2023-03-29T18:55:52.062Z,101159.56
2023-03-29T18:58:24.255Z,101164.81
2023-03-29T19:01:03.500Z,101177.03
2023-03-29T19:03:36.557Z,101172.69
2023-03-29T19:06:09.330Z,101177.91
2023-03-29T19:08:42.235Z,101170.94
2023-03-29T19:11:38.681Z,101173.56
2023-03-29T19:14:13.175Z,101169.19
2023-03-29T19:16:45.664Z,101164.81
2023-03-29T19:19:19.006Z,101159.63
2023-03-29T19:21:51.256Z,101154.38
2023-03-29T19:24:24.431Z,101146.53
2023-03-29T19:26:57.613Z,101150.06
2023-03-29T19:29:29.969Z,101141.31
2023-03-29T19:32:02.550Z,101141.31
2023-03-29T19:34:34.922Z,101119.50
2023-03-29T19:37:07.264Z,101116.03
2023-03-29T19:39:41.266Z,101121.25
2023-03-29T19:42:13.468Z,101109.91
2023-03-29T19:44:45.698Z,101108.16
2023-03-29T19:47:18.003Z,101109.91
2023-03-29T19:49:50.544Z,101104.69
2023-03-29T19:52:24.172Z,101106.44
2023-03-29T19:54:58.737Z,101107.31
2023-03-29T19:57:34.418Z,101116.03
2023-03-29T20:00:08.407Z,101110.84
2023-03-29T20:02:42.676Z,101107.34
2023-03-29T20:06:06.649Z,101105.59
2023-03-29T20:08:39.214Z,101103.84
2023-03-29T20:11:13.925Z,101102.94
2023-03-29T20:13:46.118Z,101093.34
2023-03-29T20:16:19.325Z,101095.97
2023-03-29T20:18:54.163Z,101095.97
2023-03-29T20:21:26.337Z,101097.72
2023-03-29T20:23:58.482Z,101096.84
2023-03-29T20:26:30.880Z,101091.63
2023-03-29T20:29:07.359Z,101078.56
2023-03-29T20:31:39.696Z,101071.59
2023-03-29T20:34:12.022Z,101070.72
2023-03-29T20:36:45.692Z,101076.81
2023-03-29T20:39:19.018Z,101073.31
2023-03-29T20:41:51.836Z,101069.81
2023-03-29T20:44:28.594Z,101061.13
2023-03-29T20:47:04.397Z,101050.63
2023-03-29T20:49:37.753Z,101043.66
2023-03-29T20:52:16.750Z,101050.72
2023-03-29T20:54:49.774Z,101038.50
2023-03-29T20:57:22.061Z,101057.72
2023-03-29T20:59:54.353Z,101046.38
2023-03-29T21:02:29.426Z,101036.75
2023-03-29T21:05:02.499Z,101041.13
2023-03-29T21:07:35.027Z,101022.81
2023-03-29T21:10:07.877Z,101022.84
2023-03-29T21:12:41.328Z,101015.88
2023-03-29T21:15:17.925Z,101015.03
2023-03-29T21:17:50.143Z,101016.75
2023-03-29T21:20:22.451Z,101011.56
2023-03-29T21:22:54.658Z,101007.22
2023-03-29T21:25:26.927Z,100998.47
2023-03-29T21:27:59.110Z,101003.69
2023-03-29T21:30:32.187Z,100990.63
2023-03-29T21:33:04.905Z,100987.97
2023-03-29T21:35:37.433Z,100982.72
2023-03-29T21:38:09.575Z,100986.19
2023-03-29T21:40:41.808Z,100982.72
2023-03-29T21:43:14.045Z,100980.13
2023-03-29T21:45:50.640Z,100974.00
2023-03-29T21:48:22.759Z,100966.16
2023-03-29T21:50:55.107Z,100954.81
2023-03-29T21:53:27.983Z,100942.63
2023-03-29T21:56:00.703Z,100940.91
2023-03-29T21:58:32.868Z,100937.44
2023-03-29T22:01:07.478Z,100938.25
2023-03-29T22:03:39.931Z,100940.91
2023-03-29T22:06:14.430Z,100920.88
2023-03-29T22:08:46.977Z,100915.63
2023-03-29T22:11:19.964Z,100919.19
2023-03-29T22:13:52.825Z,100910.47
2023-03-29T22:16:26.057Z,100902.63
2023-03-29T22:18:58.395Z,100896.50
2023-03-29T22:21:31.467Z,100890.41
2023-03-29T22:24:04.065Z,100888.69
2023-03-29T22:26:36.199Z,100890.41
2023-03-29T22:29:08.345Z,100880.78
2023-03-29T22:31:40.499Z,100876.44
2023-03-29T22:34:12.777Z,100873.88
2023-03-29T22:36:50.780Z,100870.41
2023-03-29T22:39:23.050Z,100867.78
2023-03-29T22:41:55.196Z,100860.81
2023-03-29T22:44:27.490Z,100852.97
2023-03-29T22:47:00.107Z,100842.50
2023-03-29T22:49:32.250Z,100839.91
2023-03-29T22:52:05.056Z,100841.63
2023-03-29T22:54:37.156Z,100833.81
2023-03-29T22:57:09.334Z,100832.91
2023-03-29T22:59:41.547Z,100828.53
2023-03-29T23:02:13.673Z,100828.53
2023-03-29T23:04:46.027Z,100818.97
2023-03-29T23:07:18.274Z,100805.03
2023-03-29T23:09:50.779Z,100811.16
2023-03-29T23:12:28.136Z,100813.78
2023-03-29T23:15:00.676Z,100804.16
2023-03-29T23:17:33.305Z,100802.41
2023-03-29T23:20:06.469Z,100798.06
2023-03-29T23:22:39.905Z,100799.81
2023-03-29T23:25:12.219Z,100795.44
2023-03-29T23:27:44.312Z,100804.22
2023-03-29T23:30:18.648Z,100799.88
2023-03-29T23:32:54.804Z,100797.28
2023-03-29T23:35:27.162Z,100795.59
2023-03-29T23:37:59.955Z,100793.00
2023-03-29T23:40:33.405Z,100799.13
2023-03-29T23:43:05.517Z,100794.72
2023-03-29T23:45:37.685Z,100790.34
2023-03-29T23:48:09.787Z,100786.00
2023-03-29T23:50:46.588Z,100791.25
2023-03-29T23:53:20.074Z,100777.28
2023-03-29T23:55:52.250Z,100771.16
2023-03-29T23:58:25.006Z,100756.28
